createdAt,value
2018-06-14T00:01:11.280Z,98621.00
2018-06-14T00:03:39.697Z,98629.00
2018-06-14T00:06:08.812Z,98627.00
2018-06-14T00:08:38.399Z,98620.00
2018-06-14T00:11:07.913Z,98627.00
2018-06-14T00:13:37.935Z,98609.00
2018-06-14T00:16:07.110Z,98609.00
2018-06-14T00:18:35.566Z,98609.00
2018-06-14T00:21:04.079Z,98616.00
2018-06-14T00:23:32.497Z,98603.00
2018-06-14T00:26:00.934Z,98614.00
2018-06-14T00:28:29.355Z,98605.00
2018-06-14T00:30:57.915Z,98615.00
2018-06-14T00:33:26.354Z,98632.00
2018-06-14T00:35:54.845Z,98622.00
2018-06-14T00:38:23.264Z,98623.00
2018-06-14T00:40:51.707Z,98614.00
2018-06-14T00:43:20.125Z,98624.00
2018-06-14T00:45:48.551Z,98627.00
2018-06-14T00:48:17.086Z,98628.00
2018-06-14T00:50:45.510Z,98631.00
2018-06-14T00:53:14.051Z,98626.00
2018-06-14T00:55:42.471Z,98616.00
2018-06-14T00:58:10.890Z,98622.00
2018-06-14T01:00:40.620Z,98617.00
2018-06-14T01:03:10.077Z,98620.00
2018-06-14T01:05:39.713Z,98618.00
2018-06-14T01:08:08.990Z,98624.00
2018-06-14T01:10:38.031Z,98619.00
2018-06-14T01:13:07.264Z,98624.00
2018-06-14T01:15:35.711Z,98633.00
2018-06-14T01:18:04.141Z,98623.00
2018-06-14T01:20:32.600Z,98623.00
2018-06-14T01:23:01.020Z,98621.00
2018-06-14T01:25:29.443Z,98612.00
2018-06-14T01:27:57.869Z,98610.00
2018-06-14T01:30:26.286Z,98607.00
2018-06-14T01:32:54.705Z,98605.00
2018-06-14T01:35:23.123Z,98611.00
2018-06-14T01:38:03.118Z,98603.00
2018-06-14T01:40:31.551Z,98602.00
2018-06-14T01:42:59.983Z,98600.00
2018-06-14T01:45:28.401Z,98594.00
2018-06-14T01:47:56.958Z,98592.00
2018-06-14T01:50:25.375Z,98599.00
2018-06-14T01:52:53.792Z,98600.00
2018-06-14T01:55:22.222Z,98593.00
2018-06-14T01:57:50.784Z,98597.00
2018-06-14T02:00:19.205Z,98594.00
2018-06-14T02:02:47.674Z,98586.00
2018-06-14T02:05:16.111Z,98584.00
2018-06-14T02:07:44.695Z,98601.00
2018-06-14T02:10:13.121Z,98587.00
2018-06-14T02:12:41.543Z,98594.00
2018-06-14T02:15:10.415Z,98597.00
2018-06-14T02:17:39.760Z,98593.00
2018-06-14T02:20:09.123Z,98592.00
2018-06-14T02:22:38.065Z,98590.00
2018-06-14T02:25:07.129Z,98588.00
2018-06-14T02:27:35.555Z,98594.00
2018-06-14T02:30:04.148Z,98594.00
2018-06-14T02:32:32.598Z,98584.00
2018-06-14T02:35:01.064Z,98580.00
2018-06-14T02:37:29.527Z,98580.00
2018-06-14T02:39:57.963Z,98579.00
2018-06-14T02:42:26.417Z,98580.00
2018-06-14T02:44:54.843Z,98593.00
2018-06-14T02:47:23.343Z,98594.00
2018-06-14T02:49:51.773Z,98601.00
2018-06-14T02:52:20.238Z,98594.00
2018-06-14T02:54:48.664Z,98597.00
2018-06-14T02:57:17.106Z,98609.00
2018-06-14T02:59:45.552Z,98607.00
2018-06-14T03:02:14.017Z,98611.00
2018-06-14T03:04:42.438Z,98606.00
2018-06-14T03:07:10.914Z,98597.00
2018-06-14T03:09:40.696Z,98605.00
2018-06-14T03:12:10.078Z,98607.00
2018-06-14T03:14:39.622Z,98603.00
2018-06-14T03:17:09.163Z,98611.00
2018-06-14T03:19:38.062Z,98615.00
2018-06-14T03:22:07.292Z,98611.00
2018-06-14T03:24:35.718Z,98618.00
2018-06-14T03:27:04.152Z,98621.00
2018-06-14T03:29:32.601Z,98612.00
2018-06-14T03:32:01.488Z,98617.00
2018-06-14T03:34:30.498Z,98619.00
2018-06-14T03:36:58.906Z,98622.00
2018-06-14T03:39:27.345Z,98629.00
2018-06-14T03:41:55.820Z,98633.00
2018-06-14T03:44:24.456Z,98629.00
2018-06-14T03:46:52.882Z,98628.00
2018-06-14T03:49:21.367Z,98633.00
2018-06-14T03:51:49.834Z,98634.00
2018-06-14T03:54:18.251Z,98641.00
2018-06-14T03:56:46.667Z,98629.00
2018-06-14T03:59:15.123Z,98633.00
2018-06-14T04:01:43.683Z,98630.00
2018-06-14T04:04:12.203Z,98630.00
2018-06-14T04:06:40.448Z,98626.00
2018-06-14T04:09:11.185Z,98625.00
2018-06-14T04:11:39.975Z,98630.00
2018-06-14T04:14:09.349Z,98632.00
2018-06-14T04:16:38.292Z,98634.00
2018-06-14T04:19:06.996Z,98641.00
2018-06-14T04:21:35.649Z,98651.00
2018-06-14T04:24:04.779Z,98652.00
2018-06-14T04:26:33.211Z,98659.00
2018-06-14T04:29:01.640Z,98652.00
2018-06-14T04:31:30.098Z,98650.00
2018-06-14T04:33:58.528Z,98652.00
2018-06-14T04:36:26.964Z,98640.00
2018-06-14T04:38:55.442Z,98651.00
2018-06-14T04:41:23.911Z,98652.00
2018-06-14T04:43:52.322Z,98656.00
2018-06-14T04:46:20.797Z,98660.00
2018-06-14T04:48:49.225Z,98658.00
2018-06-14T04:51:18.016Z,98658.00
2018-06-14T04:53:46.465Z,98661.00
2018-06-14T04:56:16.588Z,98662.00
2018-06-14T04:58:45.112Z,98661.00
2018-06-14T05:01:13.578Z,98653.00
2018-06-14T05:03:42.136Z,98652.00
2018-06-14T05:06:10.562Z,98653.00
2018-06-14T05:08:41.056Z,98651.00
2018-06-14T05:11:10.426Z,98648.00
2018-06-14T05:13:39.792Z,98655.00
2018-06-14T05:16:08.223Z,98661.00
2018-06-14T05:18:36.647Z,98656.00
2018-06-14T05:21:05.059Z,98656.00
2018-06-14T05:23:33.598Z,98652.00
2018-06-14T05:26:02.003Z,98645.00
2018-06-14T05:28:30.439Z,98645.00
2018-06-14T05:30:58.866Z,98648.00
2018-06-14T05:33:27.294Z,98648.00
2018-06-14T05:35:55.715Z,98635.00
2018-06-14T05:38:25.124Z,98648.00
2018-06-14T05:40:53.885Z,98639.00
2018-06-14T05:43:23.077Z,98642.00
2018-06-14T05:45:51.497Z,98643.00
2018-06-14T05:48:19.922Z,98645.00
2018-06-14T05:50:48.346Z,98655.00
2018-06-14T05:53:16.784Z,98646.00
2018-06-14T05:55:45.207Z,98642.00
2018-06-14T05:58:13.618Z,98652.00
2018-06-14T06:00:42.651Z,98659.00
2018-06-14T06:03:11.154Z,98659.00
2018-06-14T06:05:39.584Z,98662.00
2018-06-14T06:08:08.005Z,98653.00
2018-06-14T06:10:36.438Z,98663.00
2018-06-14T06:13:04.868Z,98663.00
2018-06-14T06:15:33.292Z,98664.00
2018-06-14T06:18:01.748Z,98661.00
2018-06-14T06:20:30.186Z,98660.00
2018-06-14T06:22:59.091Z,98670.00
2018-06-14T06:25:27.515Z,98667.00
2018-06-14T06:27:55.936Z,98658.00
2018-06-14T06:30:25.535Z,98662.00
2018-06-14T06:32:54.090Z,98663.00
2018-06-14T06:35:22.641Z,98659.00
2018-06-14T06:37:51.098Z,98666.00
2018-06-14T06:40:19.519Z,98649.00
2018-06-14T06:42:47.934Z,98654.00
2018-06-14T06:45:16.378Z,98649.00
2018-06-14T06:47:44.921Z,98650.00
2018-06-14T06:50:13.359Z,98657.00
2018-06-14T06:52:41.785Z,98652.00
2018-06-14T06:55:10.213Z,98651.00
2018-06-14T06:57:38.635Z,98655.00
2018-06-14T07:00:07.092Z,98652.00
2018-06-14T07:02:35.812Z,98648.00
2018-06-14T07:05:04.240Z,98656.00
2018-06-14T07:07:32.677Z,98656.00
2018-06-14T07:10:01.118Z,98648.00
2018-06-14T07:12:29.551Z,98650.00
2018-06-14T07:14:57.977Z,98642.00
2018-06-14T07:17:26.396Z,98644.00
2018-06-14T07:19:56.291Z,98643.00
2018-06-14T07:22:25.514Z,98635.00
2018-06-14T07:24:54.072Z,98636.00
2018-06-14T07:27:23.024Z,98644.00
2018-06-14T07:29:51.445Z,98643.00
2018-06-14T07:32:19.870Z,98637.00
2018-06-14T07:34:48.015Z,98645.00
2018-06-14T07:37:16.468Z,98646.00
2018-06-14T07:39:44.895Z,98636.00
2018-06-14T07:42:13.331Z,98633.00
2018-06-14T07:44:41.780Z,98641.00
2018-06-14T07:47:10.189Z,98645.00
2018-06-14T07:49:38.625Z,98643.00
2018-06-14T07:52:07.094Z,98639.00
2018-06-14T07:54:35.523Z,98639.00
2018-06-14T07:57:03.969Z,98642.00
2018-06-14T07:59:32.493Z,98630.00
2018-06-14T08:02:00.914Z,98635.00
2018-06-14T08:04:29.343Z,98641.00
2018-06-14T08:06:57.754Z,98638.00
2018-06-14T08:09:26.176Z,98637.00
2018-06-14T08:11:55.342Z,98636.00
2018-06-14T08:14:24.841Z,98637.00
2018-06-14T08:16:54.388Z,98642.00
2018-06-14T08:19:23.904Z,98640.00
2018-06-14T08:21:53.220Z,98645.00
2018-06-14T08:24:21.643Z,98647.00
2018-06-14T08:26:50.060Z,98641.00
2018-06-14T08:29:18.479Z,98654.00
2018-06-14T08:31:46.898Z,98650.00
2018-06-14T08:34:15.358Z,98645.00
2018-06-14T08:36:43.788Z,98647.00
2018-06-14T08:39:12.219Z,98658.00
2018-06-14T08:41:40.661Z,98647.00
2018-06-14T08:44:09.082Z,98650.00
2018-06-14T08:46:37.499Z,98652.00
2018-06-14T08:49:05.928Z,98661.00
2018-06-14T08:51:34.351Z,98664.00
2018-06-14T08:54:02.811Z,98660.00
2018-06-14T08:56:31.256Z,98654.00
2018-06-14T08:58:59.691Z,98656.00
2018-06-14T09:01:28.112Z,98658.00
2018-06-14T09:03:56.294Z,98681.00
2018-06-14T09:06:25.467Z,98670.00
2018-06-14T09:08:54.015Z,98667.00
2018-06-14T09:11:23.072Z,98665.00
2018-06-14T09:13:51.505Z,98671.00
2018-06-14T09:16:19.948Z,98674.00
2018-06-14T09:18:48.367Z,98671.00
2018-06-14T09:21:16.785Z,98664.00
2018-06-14T09:23:45.205Z,98656.00
2018-06-14T09:26:13.647Z,98658.00
2018-06-14T09:28:42.086Z,98662.00
2018-06-14T09:31:10.551Z,98660.00
2018-06-14T09:33:38.969Z,98657.00
2018-06-14T09:36:07.384Z,98665.00
2018-06-14T09:38:35.804Z,98666.00
2018-06-14T09:41:04.225Z,98665.00
2018-06-14T09:43:32.797Z,98669.00
2018-06-14T09:46:01.213Z,98656.00
2018-06-14T09:48:29.639Z,98664.00
2018-06-14T09:50:58.067Z,98655.00
2018-06-14T09:53:26.219Z,98661.00
2018-06-14T09:55:56.094Z,98659.00
2018-06-14T09:58:24.631Z,98658.00
2018-06-14T10:00:53.065Z,98656.00
2018-06-14T10:03:21.464Z,98655.00
2018-06-14T10:05:49.876Z,98657.00
2018-06-14T10:08:18.304Z,98646.00
2018-06-14T10:10:46.699Z,98658.00
2018-06-14T10:13:15.106Z,98656.00
2018-06-14T10:15:43.511Z,98656.00
2018-06-14T10:18:11.938Z,98657.00
2018-06-14T10:20:40.345Z,98656.00
2018-06-14T10:23:08.758Z,98654.00
2018-06-14T10:25:37.158Z,98656.00
2018-06-14T10:28:05.558Z,98651.00
2018-06-14T10:30:33.962Z,98650.00
2018-06-14T10:33:02.394Z,98646.00
2018-06-14T10:35:30.799Z,98654.00
2018-06-14T10:37:59.214Z,98656.00
2018-06-14T10:40:27.619Z,98661.00
2018-06-14T10:42:56.081Z,98646.00
2018-06-14T10:45:25.494Z,98648.00
2018-06-14T10:47:54.014Z,98642.00
2018-06-14T10:50:23.435Z,98648.00
2018-06-14T10:52:51.878Z,98646.00
2018-06-14T10:55:20.282Z,98645.00
2018-06-14T10:57:48.762Z,98641.00
2018-06-14T11:00:17.181Z,98635.00
2018-06-14T11:02:45.627Z,98635.00
2018-06-14T11:05:14.058Z,98634.00
2018-06-14T11:07:42.478Z,98630.00
2018-06-14T11:10:10.910Z,98622.00
2018-06-14T11:12:39.339Z,98638.00
2018-06-14T11:15:07.762Z,98628.00
2018-06-14T11:17:36.294Z,98626.00
2018-06-14T11:20:04.746Z,98625.00
2018-06-14T11:22:33.221Z,98616.00
2018-06-14T11:25:02.738Z,98619.00
2018-06-14T11:27:31.718Z,98610.00
2018-06-14T11:30:00.217Z,98615.00
2018-06-14T11:32:28.622Z,98615.00
2018-06-14T11:34:57.061Z,98611.00
2018-06-14T11:37:25.966Z,98613.00
2018-06-14T11:39:55.030Z,98610.00
2018-06-14T11:42:23.953Z,98603.00
2018-06-14T11:44:52.976Z,98604.00
2018-06-14T11:47:21.539Z,98606.00
2018-06-14T11:49:49.736Z,98599.00
2018-06-14T11:52:18.176Z,98604.00
2018-06-14T11:54:46.765Z,98599.00
2018-06-14T11:57:15.190Z,98603.00
2018-06-14T11:59:48.129Z,98601.00
2018-06-14T12:02:16.681Z,98590.00
2018-06-14T12:04:45.093Z,98587.00
2018-06-14T12:07:13.545Z,98594.00
2018-06-14T12:09:41.963Z,98583.00
2018-06-14T12:12:10.375Z,98576.00
2018-06-14T12:14:38.805Z,98582.00
2018-06-14T12:17:07.416Z,98584.00
2018-06-14T12:19:35.815Z,98581.00
2018-06-14T12:22:04.225Z,98577.00
2018-06-14T12:24:32.641Z,98580.00
2018-06-14T12:27:01.083Z,98576.00
2018-06-14T12:29:29.502Z,98575.00
2018-06-14T12:31:57.904Z,98578.00
2018-06-14T12:34:26.306Z,98572.00
2018-06-14T12:36:55.652Z,98576.00
2018-06-14T12:39:24.798Z,98566.00
2018-06-14T12:41:53.969Z,98566.00
2018-06-14T12:44:23.109Z,98572.00
2018-06-14T12:46:51.522Z,98568.00
2018-06-14T12:49:19.940Z,98566.00
2018-06-14T12:51:48.339Z,98553.00
2018-06-14T12:54:16.740Z,98551.00
2018-06-14T12:56:45.138Z,98559.00
2018-06-14T12:59:13.779Z,98556.00
2018-06-14T13:01:42.206Z,98551.00
2018-06-14T13:04:10.603Z,98551.00
2018-06-14T13:06:39.076Z,98559.00
2018-06-14T13:09:09.435Z,98545.00
2018-06-14T13:11:37.870Z,98549.00
2018-06-14T13:14:06.284Z,98540.00
2018-06-14T13:16:34.680Z,98540.00
2018-06-14T13:19:03.214Z,98540.00
2018-06-14T13:21:31.654Z,98551.00
2018-06-14T13:24:00.063Z,98550.00
2018-06-14T13:26:28.470Z,98541.00
2018-06-14T13:28:56.873Z,98534.00
2018-06-14T13:31:26.110Z,98537.00
2018-06-14T13:33:55.723Z,98527.00
2018-06-14T13:36:25.152Z,98529.00
2018-06-14T13:38:53.981Z,98535.00
2018-06-14T13:41:23.218Z,98527.00
2018-06-14T13:43:51.622Z,98538.00
2018-06-14T13:46:20.063Z,98535.00
2018-06-14T13:48:48.569Z,98524.00
2018-06-14T13:51:16.896Z,98524.00
2018-06-14T13:53:45.313Z,98520.00
2018-06-14T13:56:13.735Z,98522.00
2018-06-14T13:58:42.144Z,98522.00
2018-06-14T14:01:10.663Z,98510.00
2018-06-14T14:03:39.002Z,98514.00
2018-06-14T14:06:09.238Z,98515.00
2018-06-14T14:08:37.696Z,98503.00
2018-06-14T14:11:06.104Z,98504.00
2018-06-14T14:13:34.541Z,98504.00
2018-06-14T14:16:02.975Z,98501.00
2018-06-14T14:18:31.466Z,98503.00
2018-06-14T14:20:59.873Z,98505.00
2018-06-14T14:23:28.310Z,98506.00
2018-06-14T14:25:56.903Z,98493.00
2018-06-14T14:28:26.442Z,98486.00
2018-06-14T14:30:55.536Z,98484.00
2018-06-14T14:33:24.061Z,98483.00
2018-06-14T14:35:53.315Z,98487.00
2018-06-14T14:38:21.765Z,98490.00
2018-06-14T14:40:50.199Z,98477.00
2018-06-14T14:43:18.618Z,98474.00
2018-06-14T14:45:47.033Z,98477.00
2018-06-14T14:48:15.472Z,98472.00
2018-06-14T14:50:43.904Z,98475.00
2018-06-14T14:53:12.333Z,98471.00
2018-06-14T14:55:40.752Z,98469.00
2018-06-14T14:58:09.164Z,98473.00
2018-06-14T15:00:40.249Z,98464.00
2018-06-14T15:03:08.746Z,98466.00
2018-06-14T15:05:37.273Z,98465.00
2018-06-14T15:08:05.845Z,98470.00
2018-06-14T15:10:34.316Z,98477.00
2018-06-14T15:13:02.870Z,98472.00
2018-06-14T15:15:31.354Z,98475.00
2018-06-14T15:17:59.831Z,98470.00
2018-06-14T15:20:28.694Z,98483.00
2018-06-14T15:22:57.155Z,98468.00
2018-06-14T15:25:26.047Z,98463.00
2018-06-14T15:27:55.595Z,98469.00
2018-06-14T15:30:24.740Z,98465.00
2018-06-14T15:32:53.829Z,98469.00
2018-06-14T15:35:22.752Z,98467.00
2018-06-14T15:37:51.265Z,98471.00
2018-06-14T15:40:20.218Z,98461.00
2018-06-14T15:42:48.668Z,98457.00
2018-06-14T15:45:17.198Z,98462.00
2018-06-14T15:47:45.945Z,98453.00
2018-06-14T15:50:14.355Z,98463.00
2018-06-14T15:52:42.844Z,98452.00
2018-06-14T15:55:22.716Z,98452.00
2018-06-14T15:57:51.226Z,98444.00
2018-06-14T16:00:19.851Z,98444.00
2018-06-14T16:02:48.289Z,98439.00
2018-06-14T16:05:18.104Z,98449.00
2018-06-14T16:07:47.410Z,98440.00
2018-06-14T16:10:16.090Z,98441.00
2018-06-14T16:12:44.510Z,98446.00
2018-06-14T16:15:12.910Z,98445.00
2018-06-14T16:17:41.333Z,98444.00
2018-06-14T16:20:10.054Z,98446.00
2018-06-14T16:22:38.497Z,98443.00
2018-06-14T16:25:06.924Z,98443.00
2018-06-14T16:27:35.439Z,98442.00
2018-06-14T16:30:03.901Z,98433.00
2018-06-14T16:32:32.319Z,98439.00
2018-06-14T16:35:00.874Z,98439.00
2018-06-14T16:37:29.429Z,98432.00
2018-06-14T16:39:57.985Z,98432.00
2018-06-14T16:42:26.617Z,98433.00
2018-06-14T16:44:56.075Z,98435.00
2018-06-14T16:47:24.647Z,98439.00
2018-06-14T16:49:54.150Z,98441.00
2018-06-14T16:52:23.092Z,98445.00
2018-06-14T16:54:51.529Z,98444.00
2018-06-14T16:57:20.214Z,98435.00
2018-06-14T16:59:50.043Z,98458.00
2018-06-14T17:02:20.494Z,98435.00
2018-06-14T17:04:48.981Z,98435.00
2018-06-14T17:07:17.397Z,98436.00
2018-06-14T17:09:45.895Z,98440.00
2018-06-14T17:12:14.494Z,98442.00
2018-06-14T17:14:43.319Z,98432.00
2018-06-14T17:17:11.776Z,98437.00
2018-06-14T17:19:40.244Z,98451.00
2018-06-14T17:22:08.744Z,98447.00
2018-06-14T17:24:37.176Z,98450.00
2018-06-14T17:27:05.766Z,98446.00
2018-06-14T17:29:34.362Z,98461.00
2018-06-14T17:32:02.992Z,98450.00
2018-06-14T17:34:31.577Z,98453.00
2018-06-14T17:37:00.467Z,98457.00
2018-06-14T17:39:29.557Z,98459.00
2018-06-14T17:41:58.398Z,98458.00
2018-06-14T17:44:27.657Z,98462.00
2018-06-14T17:46:56.138Z,98462.00
2018-06-14T17:49:25.243Z,98463.00
2018-06-14T17:51:54.459Z,98474.00
2018-06-14T17:54:24.108Z,98476.00
2018-06-14T17:56:53.508Z,98467.00
2018-06-14T17:59:21.903Z,98477.00
2018-06-14T18:01:50.546Z,98479.00
2018-06-14T18:04:19.060Z,98477.00
2018-06-14T18:06:47.784Z,98481.00
2018-06-14T18:09:16.271Z,98477.00
2018-06-14T18:11:44.850Z,98481.00
2018-06-14T18:14:13.381Z,98483.00
2018-06-14T18:16:41.998Z,98479.00
2018-06-14T18:19:10.518Z,98482.00
2018-06-14T18:21:39.105Z,98485.00
2018-06-14T18:24:07.669Z,98484.00
2018-06-14T18:26:36.143Z,98491.00
2018-06-14T18:29:04.855Z,98498.00
2018-06-14T18:31:33.390Z,98493.00
2018-06-14T18:34:01.840Z,98498.00
2018-06-14T18:36:30.303Z,98506.00
2018-06-14T18:38:58.764Z,98504.00
2018-06-14T18:41:27.454Z,98503.00
2018-06-14T18:43:56.481Z,98506.00
2018-06-14T18:46:25.602Z,98504.00
2018-06-14T18:48:55.105Z,98508.00
2018-06-14T18:51:24.034Z,98511.00
2018-06-14T18:53:53.950Z,98509.00
2018-06-14T18:56:23.079Z,98507.00
2018-06-14T18:58:51.923Z,98515.00
2018-06-14T19:01:21.869Z,98509.00
2018-06-14T19:03:51.805Z,98520.00
2018-06-14T19:06:20.661Z,98512.00
2018-06-14T19:08:49.104Z,98520.00
2018-06-14T19:11:17.540Z,98526.00
2018-06-14T19:13:46.021Z,98528.00
2018-06-14T19:16:14.527Z,98522.00
2018-06-14T19:18:42.966Z,98535.00
2018-06-14T19:21:11.418Z,98535.00
2018-06-14T19:23:39.851Z,98540.00
2018-06-14T19:26:08.343Z,98536.00
2018-06-14T19:28:36.766Z,98550.00
2018-06-14T19:31:05.623Z,98549.00
2018-06-14T19:33:34.070Z,98549.00
2018-06-14T19:36:02.505Z,98553.00
2018-06-14T19:38:30.970Z,98563.00
2018-06-14T19:40:59.394Z,98557.00
2018-06-14T19:43:28.382Z,98559.00
2018-06-14T19:45:56.818Z,98553.00
2018-06-14T19:48:26.631Z,98565.00
2018-06-14T19:50:56.111Z,98561.00
2018-06-14T19:53:25.142Z,98566.00
2018-06-14T19:55:54.495Z,98572.00
2018-06-14T19:58:23.925Z,98576.00
2018-06-14T20:00:52.146Z,98581.00
2018-06-14T20:03:21.368Z,98573.00
2018-06-14T20:05:49.909Z,98579.00
2018-06-14T20:08:18.570Z,98582.00
2018-06-14T20:10:47.037Z,98583.00
2018-06-14T20:13:15.477Z,98591.00
2018-06-14T20:15:43.930Z,98591.00
2018-06-14T20:18:12.112Z,98585.00
2018-06-14T20:20:40.572Z,98589.00
2018-06-14T20:23:08.990Z,98600.00
2018-06-14T20:25:37.455Z,98594.00
2018-06-14T20:28:06.155Z,98594.00
2018-06-14T20:30:34.626Z,98593.00
2018-06-14T20:33:03.149Z,98600.00
2018-06-14T20:35:31.637Z,98596.00
2018-06-14T20:38:00.068Z,98600.00
2018-06-14T20:40:28.505Z,98606.00
2018-06-14T20:42:56.925Z,98603.00
2018-06-14T20:45:26.270Z,98606.00
2018-06-14T20:47:55.404Z,98612.00
2018-06-14T20:50:24.883Z,98618.00
2018-06-14T20:52:53.985Z,98608.00
2018-06-14T20:55:23.238Z,98612.00
2018-06-14T20:57:51.666Z,98619.00
2018-06-14T21:00:20.107Z,98613.00
2018-06-14T21:02:48.527Z,98621.00
2018-06-14T21:05:16.937Z,98622.00
2018-06-14T21:07:45.361Z,98613.00
2018-06-14T21:10:13.776Z,98623.00
2018-06-14T21:12:42.797Z,98630.00
2018-06-14T21:15:11.209Z,98613.00
2018-06-14T21:17:39.631Z,98618.00
2018-06-14T21:20:08.041Z,98615.00
2018-06-14T21:22:36.446Z,98621.00
2018-06-14T21:25:04.850Z,98619.00
2018-06-14T21:27:33.305Z,98613.00
2018-06-14T21:30:01.709Z,98627.00
2018-06-14T21:32:30.137Z,98618.00
2018-06-14T21:34:58.544Z,98622.00
2018-06-14T21:37:27.121Z,98622.00
2018-06-14T21:39:55.591Z,98625.00
2018-06-14T21:42:25.000Z,98607.00
2018-06-14T21:44:53.979Z,98619.00
2018-06-14T21:47:23.109Z,98616.00
2018-06-14T21:49:51.655Z,98615.00
2018-06-14T21:52:20.059Z,98613.00
2018-06-14T21:54:48.569Z,98618.00
2018-06-14T21:57:16.981Z,98620.00
2018-06-14T21:59:45.391Z,98612.00
2018-06-14T22:02:13.826Z,98629.00
2018-06-14T22:04:42.310Z,98632.00
2018-06-14T22:07:13.393Z,98624.00
2018-06-14T22:09:42.184Z,98631.00
2018-06-14T22:12:10.770Z,98629.00
2018-06-14T22:14:39.226Z,98628.00
2018-06-14T22:17:07.943Z,98624.00
2018-06-14T22:19:36.417Z,98632.00
2018-06-14T22:22:04.847Z,98636.00
2018-06-14T22:24:33.280Z,98629.00
2018-06-14T22:27:01.725Z,98629.00
2018-06-14T22:29:30.152Z,98634.00
2018-06-14T22:31:58.603Z,98619.00
2018-06-14T22:34:38.613Z,98624.00
2018-06-14T22:37:07.110Z,98625.00
2018-06-14T22:39:35.546Z,98623.00
2018-06-14T22:42:04.009Z,98619.00
2018-06-14T22:44:32.501Z,98624.00
2018-06-14T22:47:01.026Z,98626.00
2018-06-14T22:49:29.477Z,98624.00
2018-06-14T22:52:09.220Z,98631.00
2018-06-14T22:54:37.793Z,98628.00
2018-06-14T22:57:06.232Z,98620.00
2018-06-14T22:59:34.664Z,98627.00
2018-06-14T23:02:03.225Z,98621.00
2018-06-14T23:04:32.146Z,98619.00
2018-06-14T23:07:00.551Z,98613.00
2018-06-14T23:10:42.229Z,98614.00
2018-06-14T23:13:12.082Z,98615.00
2018-06-14T23:15:40.462Z,98608.00
2018-06-14T23:18:08.914Z,98615.00
2018-06-14T23:20:37.482Z,98619.00
2018-06-14T23:23:06.479Z,98617.00
2018-06-14T23:25:35.473Z,98622.00
2018-06-14T23:28:04.133Z,98621.00
2018-06-14T23:30:32.605Z,98618.00
2018-06-14T23:33:01.054Z,98617.00
2018-06-14T23:35:29.458Z,98612.00
2018-06-14T23:37:57.886Z,98611.00
2018-06-14T23:40:26.309Z,98610.00
2018-06-14T23:42:55.741Z,98611.00
2018-06-14T23:45:25.029Z,98616.00
2018-06-14T23:47:53.973Z,98626.00
2018-06-14T23:50:23.195Z,98616.00
2018-06-14T23:52:51.605Z,98620.00
2018-06-14T23:55:20.007Z,98606.00
2018-06-14T23:57:48.414Z,98614.00
